createdAt,value
2018-07-04T00:02:44.610Z,6.10
2018-07-04T00:05:31.915Z,6.80
2018-07-04T00:08:18.531Z,7.17
2018-07-04T00:11:05.279Z,7.30
2018-07-04T00:13:52.073Z,7.37
2018-07-04T00:16:40.523Z,8.10
2018-07-04T00:19:27.029Z,7.97
2018-07-04T00:22:07.646Z,8.67
2018-07-04T00:24:54.047Z,7.53
2018-07-04T00:27:40.447Z,7.20
2018-07-04T00:30:26.758Z,7.27
2018-07-04T00:33:13.442Z,6.60
2018-07-04T00:36:00.076Z,7.33
2018-07-04T00:38:46.559Z,7.60
2018-07-04T00:41:32.963Z,5.10
2018-07-04T00:44:19.287Z,5.10
2018-07-04T00:47:05.758Z,3.90
2018-07-04T00:49:52.041Z,2.90
2018-07-04T00:52:32.419Z,3.50
2018-07-04T00:55:18.859Z,3.70
2018-07-04T00:58:07.246Z,4.37
2018-07-04T01:00:53.589Z,5.77
2018-07-04T01:03:40.105Z,6.00
2018-07-04T01:06:26.362Z,5.43
2018-07-04T01:09:07.304Z,6.23
2018-07-04T01:11:55.309Z,5.07
2018-07-04T01:14:41.698Z,5.13
2018-07-04T01:17:28.307Z,5.30
2018-07-04T01:20:14.519Z,5.60
2018-07-04T01:23:00.885Z,3.43
2018-07-04T01:25:41.531Z,2.00
2018-07-04T01:28:33.465Z,2.53
2018-07-04T01:31:20.272Z,3.40
2018-07-04T01:34:07.486Z,6.80
2018-07-04T01:36:53.968Z,6.73
2018-07-04T01:39:40.430Z,7.40
2018-07-04T01:42:21.836Z,6.70
2018-07-04T01:45:08.383Z,7.97
2018-07-04T01:47:54.850Z,6.40
2018-07-04T01:50:41.982Z,5.57
2018-07-04T01:53:28.504Z,3.27
2018-07-04T01:56:14.762Z,2.30
2018-07-04T01:59:01.266Z,5.00
2018-07-04T02:01:47.827Z,8.47
2018-07-04T02:04:34.267Z,9.30
2018-07-04T02:07:14.668Z,8.40
2018-07-04T02:10:01.350Z,7.33
2018-07-04T02:12:47.596Z,4.80
2018-07-04T02:15:33.838Z,5.57
2018-07-04T02:18:21.031Z,5.83
2018-07-04T02:21:07.515Z,3.93
2018-07-04T02:23:54.502Z,2.70
2018-07-04T02:26:41.035Z,2.73
2018-07-04T02:29:28.739Z,3.40
2018-07-04T02:32:15.550Z,4.23
2018-07-04T02:35:02.172Z,4.70
2018-07-04T02:37:49.881Z,4.10
2018-07-04T02:40:36.234Z,8.00
2018-07-04T02:43:22.749Z,10.67
2018-07-04T02:46:09.012Z,6.47
2018-07-04T02:48:56.579Z,4.10
2018-07-04T02:51:43.453Z,3.17
2018-07-04T02:54:29.778Z,2.90
2018-07-04T02:57:16.228Z,3.90
2018-07-04T03:00:02.590Z,2.27
2018-07-04T03:02:48.974Z,2.20
2018-07-04T03:05:35.380Z,2.30
2018-07-04T03:08:21.752Z,6.03
2018-07-04T03:11:08.717Z,6.73
2018-07-04T03:13:54.969Z,5.40
2018-07-04T03:16:41.331Z,3.73
2018-07-04T03:19:27.753Z,3.67
2018-07-04T03:22:13.986Z,2.40
2018-07-04T03:25:00.474Z,2.17
2018-07-04T03:27:47.149Z,2.30
2018-07-04T03:30:34.836Z,3.63
2018-07-04T03:33:21.214Z,3.83
2018-07-04T03:36:08.910Z,5.90
2018-07-04T03:38:55.482Z,3.53
2018-07-04T03:41:42.159Z,3.67
2018-07-04T03:44:28.499Z,4.03
2018-07-04T03:47:15.177Z,2.83
2018-07-04T03:50:01.704Z,3.27
2018-07-04T03:52:48.128Z,5.07
2018-07-04T03:55:34.814Z,4.40
2018-07-04T03:58:21.369Z,7.30
2018-07-04T04:01:08.734Z,7.40
2018-07-04T04:03:55.263Z,9.00
2018-07-04T04:06:41.836Z,9.50
2018-07-04T04:09:29.111Z,10.10
2018-07-04T04:12:16.493Z,10.37
2018-07-04T04:15:02.826Z,7.93
2018-07-04T04:17:49.916Z,7.70
2018-07-04T04:20:36.201Z,7.93
2018-07-04T04:23:22.631Z,8.40
2018-07-04T04:26:09.007Z,9.30
2018-07-04T04:28:55.445Z,9.50
2018-07-04T04:31:41.926Z,10.37
2018-07-04T04:34:28.310Z,10.67
2018-07-04T04:37:14.729Z,11.40
2018-07-04T04:40:01.266Z,12.50
2018-07-04T04:42:47.725Z,12.80
2018-07-04T04:45:34.056Z,12.30
2018-07-04T04:48:20.834Z,11.40
2018-07-04T04:51:07.277Z,12.50
2018-07-04T04:53:53.793Z,10.00
2018-07-04T04:56:40.706Z,9.90
2018-07-04T04:59:27.449Z,11.00
2018-07-04T05:02:07.840Z,10.60
2018-07-04T05:04:54.462Z,8.53
2018-07-04T05:07:41.013Z,8.93
2018-07-04T05:10:27.268Z,8.37
2018-07-04T05:13:13.846Z,8.67
2018-07-04T05:15:54.199Z,8.70
2018-07-04T05:18:40.861Z,7.53
2018-07-04T05:21:27.236Z,7.47
2018-07-04T05:24:13.790Z,6.17
2018-07-04T05:27:00.278Z,7.23
2018-07-04T05:29:46.997Z,5.80
2018-07-04T05:32:33.477Z,6.10
2018-07-04T05:35:19.922Z,5.20
2018-07-04T05:38:06.479Z,5.10
2018-07-04T05:40:53.258Z,5.67
2018-07-04T05:43:33.799Z,5.00
2018-07-04T05:46:14.561Z,3.83
2018-07-04T05:49:01.009Z,4.60
2018-07-04T05:51:47.305Z,5.20
2018-07-04T05:54:27.736Z,4.53
2018-07-04T05:57:14.091Z,4.03
2018-07-04T06:00:00.440Z,3.50
2018-07-04T06:02:46.843Z,4.50
2018-07-04T06:05:33.304Z,3.67
2018-07-04T06:08:19.994Z,3.30
2018-07-04T06:11:06.540Z,2.97
2018-07-04T06:13:53.117Z,3.20
2018-07-04T06:16:39.913Z,2.80
2018-07-04T06:19:26.449Z,2.47
2018-07-04T06:22:12.827Z,3.03
2018-07-04T06:24:59.357Z,2.40
2018-07-04T06:27:46.630Z,2.83
2018-07-04T06:30:27.135Z,2.50
2018-07-04T06:33:13.746Z,3.60
2018-07-04T06:36:00.818Z,2.77
2018-07-04T06:38:28.579Z,2.97
2018-07-04T06:40:56.476Z,2.97
2018-07-04T06:43:24.541Z,2.97
2018-07-04T06:45:52.746Z,2.80
2018-07-04T06:48:20.527Z,2.80
2018-07-04T06:50:48.302Z,2.43
2018-07-04T06:53:16.058Z,2.80
2018-07-04T06:55:43.845Z,3.03
2018-07-04T06:58:11.605Z,3.13
2018-07-04T07:00:39.368Z,3.47
2018-07-04T07:03:25.870Z,2.80
2018-07-04T07:06:12.238Z,3.13
2018-07-04T07:08:58.647Z,3.87
2018-07-04T07:11:45.253Z,3.00
2018-07-04T07:14:31.759Z,3.33
2018-07-04T07:17:18.042Z,3.47
2018-07-04T07:20:04.469Z,3.27
2018-07-04T07:22:50.864Z,2.77
2018-07-04T07:25:37.271Z,2.90
2018-07-04T07:28:23.809Z,2.97
2018-07-04T07:31:10.297Z,2.73
2018-07-04T07:33:56.798Z,3.10
2018-07-04T07:36:43.736Z,3.17
2018-07-04T07:39:30.132Z,3.50
2018-07-04T07:42:16.508Z,3.07
2018-07-04T07:45:02.976Z,3.20
2018-07-04T07:47:43.431Z,3.07
2018-07-04T07:50:29.772Z,3.23
2018-07-04T07:53:16.289Z,2.87
2018-07-04T07:56:02.597Z,2.50
2018-07-04T07:58:49.216Z,3.00
2018-07-04T08:01:35.705Z,2.50
2018-07-04T08:04:22.409Z,3.40
2018-07-04T08:07:09.042Z,3.17
2018-07-04T08:09:55.600Z,2.70
2018-07-04T08:12:42.223Z,3.10
2018-07-04T08:15:28.706Z,2.40
2018-07-04T08:18:15.231Z,2.87
2018-07-04T08:21:01.534Z,2.83
2018-07-04T08:23:48.020Z,2.50
2018-07-04T08:26:34.583Z,2.57
2018-07-04T08:29:21.096Z,2.20
2018-07-04T08:32:07.722Z,3.37
2018-07-04T08:34:48.477Z,2.20
2018-07-04T08:37:35.149Z,2.60
2018-07-04T08:40:21.737Z,2.40
2018-07-04T08:43:08.293Z,2.77
2018-07-04T08:45:54.889Z,2.60
2018-07-04T08:48:41.225Z,2.87
2018-07-04T08:51:21.727Z,2.43
2018-07-04T08:54:08.342Z,2.50
2018-07-04T08:56:54.620Z,3.10
2018-07-04T08:59:41.000Z,1.73
2018-07-04T09:02:21.496Z,2.27
2018-07-04T09:05:08.012Z,1.80
2018-07-04T09:07:54.539Z,2.13
2018-07-04T09:10:41.382Z,2.40
2018-07-04T09:13:21.895Z,2.43
2018-07-04T09:16:08.173Z,1.97
2018-07-04T09:18:54.697Z,1.93
2018-07-04T09:21:41.345Z,1.77
2018-07-04T09:24:27.847Z,1.90
2018-07-04T09:27:14.380Z,1.67
2018-07-04T09:30:00.964Z,2.33
2018-07-04T09:32:47.415Z,1.33
2018-07-04T09:35:33.824Z,1.83
2018-07-04T09:38:20.381Z,1.93
2018-07-04T09:41:06.945Z,1.40
2018-07-04T09:43:53.836Z,2.00
2018-07-04T09:46:40.356Z,1.50
2018-07-04T09:49:26.755Z,1.63
2018-07-04T09:52:13.272Z,1.40
2018-07-04T09:55:00.008Z,1.70
2018-07-04T09:57:46.397Z,1.87
2018-07-04T10:00:32.898Z,1.33
2018-07-04T10:03:19.401Z,1.63
2018-07-04T10:06:06.645Z,2.20
2018-07-04T10:08:53.211Z,1.57
2018-07-04T10:11:39.973Z,1.70
2018-07-04T10:14:26.342Z,2.10
2018-07-04T10:17:12.876Z,2.30
2018-07-04T10:19:59.719Z,2.20
2018-07-04T10:22:40.301Z,1.90
2018-07-04T10:25:26.774Z,2.23
2018-07-04T10:28:13.471Z,2.17
2018-07-04T10:30:59.882Z,1.67
2018-07-04T10:33:46.245Z,2.10
2018-07-04T10:36:32.713Z,2.30
2018-07-04T10:39:19.284Z,1.63
2018-07-04T10:42:05.757Z,1.60
2018-07-04T10:44:52.380Z,1.40
2018-07-04T10:47:38.818Z,1.27
2018-07-04T10:50:25.225Z,1.50
2018-07-04T10:53:05.867Z,1.90
2018-07-04T10:55:52.288Z,1.70
2018-07-04T10:58:38.753Z,1.70
2018-07-04T11:01:25.088Z,2.47
2018-07-04T11:04:11.552Z,1.80
2018-07-04T11:06:57.996Z,1.67
2018-07-04T11:09:44.457Z,1.60
2018-07-04T11:12:30.946Z,2.07
2018-07-04T11:15:17.841Z,1.53
2018-07-04T11:17:58.229Z,1.23
2018-07-04T11:20:44.783Z,1.30
2018-07-04T11:23:31.345Z,0.93
2018-07-04T11:26:17.825Z,1.27
2018-07-04T11:28:58.290Z,1.30
2018-07-04T11:31:38.787Z,1.00
2018-07-04T11:34:25.426Z,1.33
2018-07-04T11:37:11.974Z,1.10
2018-07-04T11:39:59.194Z,1.13
2018-07-04T11:42:45.723Z,1.10
2018-07-04T11:45:32.143Z,1.50
2018-07-04T11:48:00.444Z,1.30
2018-07-04T11:50:28.230Z,1.13
2018-07-04T11:52:56.905Z,1.30
2018-07-04T11:55:25.658Z,1.47
2018-07-04T11:57:53.413Z,2.60
2018-07-04T12:00:21.201Z,1.03
2018-07-04T12:02:49.170Z,1.47
2018-07-04T12:05:35.708Z,1.33
2018-07-04T12:08:03.448Z,1.37
2018-07-04T12:10:31.211Z,1.10
2018-07-04T12:12:59.002Z,1.40
2018-07-04T12:15:26.822Z,1.10
2018-07-04T12:17:54.586Z,1.40
2018-07-04T12:20:22.463Z,1.10
2018-07-04T12:22:50.215Z,1.00
2018-07-04T12:25:18.090Z,1.17
2018-07-04T12:27:45.903Z,1.13
2018-07-04T12:30:13.656Z,1.03
2018-07-04T12:32:41.430Z,1.30
2018-07-04T12:35:09.228Z,1.10
2018-07-04T12:37:37.013Z,1.00
2018-07-04T12:40:04.796Z,1.00
2018-07-04T12:42:32.641Z,1.13
2018-07-04T12:45:00.662Z,0.90
2018-07-04T12:47:28.453Z,1.00
2018-07-04T12:49:56.398Z,0.90
2018-07-04T12:52:24.149Z,1.03
2018-07-04T12:55:12.796Z,1.10
2018-07-04T12:57:59.076Z,0.80
2018-07-04T13:00:45.640Z,1.20
2018-07-04T13:03:32.200Z,1.30
2018-07-04T13:06:18.921Z,1.10
2018-07-04T13:09:05.756Z,0.87
2018-07-04T13:11:52.845Z,0.90
2018-07-04T13:14:39.477Z,0.93
2018-07-04T13:17:26.324Z,1.40
2018-07-04T13:20:12.647Z,0.67
2018-07-04T13:22:59.041Z,0.90
2018-07-04T13:25:45.604Z,0.90
2018-07-04T13:28:32.336Z,1.10
2018-07-04T13:31:19.337Z,1.20
2018-07-04T13:34:06.211Z,1.60
2018-07-04T13:36:52.883Z,1.03
2018-07-04T13:39:39.417Z,1.20
2018-07-04T13:42:26.233Z,1.13
2018-07-04T13:45:13.585Z,1.13
2018-07-04T13:48:00.015Z,0.90
2018-07-04T13:50:46.545Z,1.30
2018-07-04T13:53:34.932Z,0.83
2018-07-04T13:56:21.516Z,1.00
2018-07-04T13:59:08.154Z,0.80
2018-07-04T14:01:55.290Z,1.03
2018-07-04T14:04:42.014Z,0.83
2018-07-04T14:07:22.510Z,1.10
2018-07-04T14:10:09.158Z,1.07
2018-07-04T14:12:55.623Z,1.30
2018-07-04T14:15:42.258Z,1.17
2018-07-04T14:18:28.747Z,1.00
2018-07-04T14:21:15.069Z,1.20
2018-07-04T14:24:01.528Z,0.90
2018-07-04T14:26:48.312Z,0.90
2018-07-04T14:29:34.837Z,1.00
2018-07-04T14:32:15.133Z,1.27
2018-07-04T14:35:01.650Z,1.20
2018-07-04T14:37:48.296Z,1.20
2018-07-04T14:40:28.762Z,1.00
2018-07-04T14:43:09.235Z,0.97
2018-07-04T14:45:50.004Z,1.00
2018-07-04T14:48:30.472Z,2.13
2018-07-04T14:51:11.189Z,1.37
2018-07-04T14:53:57.676Z,1.03
2018-07-04T14:56:44.265Z,0.90
2018-07-04T14:59:31.561Z,1.20
2018-07-04T15:02:12.071Z,1.17
2018-07-04T15:04:58.699Z,1.30
2018-07-04T15:07:44.975Z,1.53
2018-07-04T15:10:31.516Z,0.97
2018-07-04T15:13:17.930Z,1.37
2018-07-04T15:16:04.520Z,1.33
2018-07-04T15:18:50.920Z,1.50
2018-07-04T15:21:37.477Z,1.27
2018-07-04T15:24:23.804Z,1.30
2018-07-04T15:27:10.375Z,1.33
2018-07-04T15:29:50.598Z,1.13
2018-07-04T15:32:37.311Z,0.63
2018-07-04T15:35:23.687Z,0.87
2018-07-04T15:38:10.207Z,0.93
2018-07-04T15:40:56.599Z,1.33
2018-07-04T15:43:43.190Z,1.20
2018-07-04T15:46:29.570Z,1.30
2018-07-04T15:49:17.285Z,1.40
2018-07-04T15:52:03.781Z,1.13
2018-07-04T15:54:50.690Z,1.00
2018-07-04T15:57:37.031Z,1.33
2018-07-04T16:00:23.476Z,1.03
2018-07-04T16:03:10.306Z,1.30
2018-07-04T16:05:56.611Z,1.50
2018-07-04T16:08:43.068Z,0.90
2018-07-04T16:11:29.509Z,2.13
2018-07-04T16:14:15.886Z,1.17
2018-07-04T16:17:02.408Z,1.60
2018-07-04T16:19:49.004Z,2.40
2018-07-04T16:22:35.534Z,1.40
2018-07-04T16:25:22.016Z,1.23
2018-07-04T16:28:08.629Z,1.10
2018-07-04T16:30:55.138Z,1.10
2018-07-04T16:33:41.510Z,1.43
2018-07-04T16:36:27.897Z,1.10
2018-07-04T16:39:14.325Z,1.47
2018-07-04T16:42:00.712Z,1.00
2018-07-04T16:44:47.149Z,1.43
2018-07-04T16:47:33.611Z,1.00
2018-07-04T16:50:20.121Z,1.23
2018-07-04T16:53:06.507Z,1.30
2018-07-04T16:55:46.816Z,1.40
2018-07-04T16:58:33.333Z,1.53
2018-07-04T17:01:20.673Z,1.90
2018-07-04T17:04:07.137Z,1.73
2018-07-04T17:06:53.976Z,1.67
2018-07-04T17:09:40.505Z,1.10
2018-07-04T17:12:26.953Z,1.23
2018-07-04T17:15:13.412Z,1.50
2018-07-04T17:17:59.884Z,1.50
2018-07-04T17:20:46.559Z,1.20
2018-07-04T17:23:32.877Z,1.30
2018-07-04T17:26:19.349Z,1.97
2018-07-04T17:29:05.812Z,1.50
2018-07-04T17:31:52.157Z,1.27
2018-07-04T17:34:38.514Z,1.90
2018-07-04T17:37:24.983Z,1.20
2018-07-04T17:40:11.525Z,1.17
2018-07-04T17:42:58.096Z,1.40
2018-07-04T17:45:44.618Z,1.10
2018-07-04T17:48:31.359Z,1.30
2018-07-04T17:51:17.667Z,1.20
2018-07-04T17:54:04.309Z,1.20
2018-07-04T17:56:51.204Z,1.37
2018-07-04T17:59:31.593Z,0.80
2018-07-04T18:02:18.199Z,1.07
2018-07-04T18:05:04.871Z,1.23
2018-07-04T18:07:51.423Z,1.77
2018-07-04T18:10:37.874Z,1.13
2018-07-04T18:13:24.321Z,1.30
2018-07-04T18:16:10.738Z,1.00
2018-07-04T18:18:57.109Z,0.97
2018-07-04T18:21:37.534Z,0.80
2018-07-04T18:24:23.902Z,1.30
2018-07-04T18:27:10.400Z,1.10
2018-07-04T18:29:56.812Z,1.17
2018-07-04T18:32:43.443Z,1.10
2018-07-04T18:35:30.071Z,0.80
2018-07-04T18:38:16.457Z,0.70
2018-07-04T18:41:02.826Z,0.77
2018-07-04T18:43:49.554Z,1.00
2018-07-04T18:46:36.041Z,1.00
2018-07-04T18:49:22.467Z,0.90
2018-07-04T18:52:09.062Z,0.87
2018-07-04T18:54:55.433Z,1.10
2018-07-04T18:57:41.843Z,1.03
2018-07-04T19:00:28.262Z,0.67
2018-07-04T19:03:14.636Z,0.80
2018-07-04T19:06:00.925Z,1.13
2018-07-04T19:08:47.326Z,0.90
2018-07-04T19:11:27.630Z,0.87
2018-07-04T19:14:14.252Z,0.60
2018-07-04T19:17:00.814Z,0.60
2018-07-04T19:19:47.176Z,0.87
2018-07-04T19:22:33.541Z,0.90
2018-07-04T19:25:19.870Z,0.60
2018-07-04T19:28:06.117Z,0.80
2018-07-04T19:30:46.461Z,0.77
2018-07-04T19:33:27.044Z,0.60
2018-07-04T19:36:07.628Z,0.70
2018-07-04T19:38:53.958Z,1.20
2018-07-04T19:41:40.502Z,0.60
2018-07-04T19:44:26.858Z,0.60
2018-07-04T19:47:14.506Z,1.17
2018-07-04T19:50:01.093Z,0.93
2018-07-04T19:52:47.645Z,0.80
2018-07-04T19:55:34.212Z,0.80
2018-07-04T19:58:23.741Z,0.90
2018-07-04T20:01:04.246Z,0.80
2018-07-04T20:03:50.693Z,0.70
2018-07-04T20:06:37.053Z,0.93
2018-07-04T20:09:23.411Z,1.10
2018-07-04T20:12:03.867Z,0.97
2018-07-04T20:14:50.422Z,1.10
2018-07-04T20:17:36.974Z,0.90
2018-07-04T20:20:23.468Z,1.00
2018-07-04T20:23:10.936Z,1.00
2018-07-04T20:25:57.242Z,1.37
2018-07-04T20:28:43.897Z,1.20
2018-07-04T20:31:30.463Z,1.40
2018-07-04T20:34:17.145Z,1.40
2018-07-04T20:36:57.661Z,1.30
2018-07-04T20:39:44.491Z,1.20
2018-07-04T20:42:31.079Z,1.63
2018-07-04T20:45:17.550Z,1.90
2018-07-04T20:48:03.957Z,1.20
2018-07-04T20:50:50.332Z,1.47
2018-07-04T20:53:30.932Z,1.10
2018-07-04T20:56:17.690Z,1.50
2018-07-04T20:59:04.159Z,1.50
2018-07-04T21:01:50.620Z,1.63
2018-07-04T21:04:36.958Z,1.30
2018-07-04T21:07:23.510Z,1.60
2018-07-04T21:10:10.369Z,1.40
2018-07-04T21:12:57.120Z,1.70
2018-07-04T21:15:43.488Z,2.20
2018-07-04T21:18:30.044Z,1.33
2018-07-04T21:21:16.378Z,2.00
2018-07-04T21:24:03.010Z,1.47
2018-07-04T21:26:49.523Z,1.80
2018-07-04T21:29:36.243Z,2.67
2018-07-04T21:32:22.701Z,1.63
2018-07-04T21:35:09.037Z,1.53
2018-07-04T21:37:55.361Z,2.20
2018-07-04T21:40:41.830Z,1.77
2018-07-04T21:43:28.365Z,1.80
2018-07-04T21:46:15.044Z,2.20
2018-07-04T21:49:01.430Z,1.90
2018-07-04T21:51:47.794Z,2.30
2018-07-04T21:54:34.197Z,1.60
2018-07-04T21:57:20.559Z,2.30
2018-07-04T22:00:07.413Z,2.07
2018-07-04T22:02:53.877Z,2.20
2018-07-04T22:05:40.280Z,2.37
2018-07-04T22:08:26.741Z,2.40
2018-07-04T22:11:13.080Z,2.33
2018-07-04T22:13:59.611Z,2.40
2018-07-04T22:16:46.006Z,2.50
2018-07-04T22:19:32.491Z,1.80
2018-07-04T22:22:18.930Z,2.33
2018-07-04T22:25:05.322Z,1.80
2018-07-04T22:27:51.920Z,1.73
2018-07-04T22:30:38.546Z,2.17
2018-07-04T22:33:25.680Z,2.33
2018-07-04T22:36:12.112Z,2.40
2018-07-04T22:38:58.524Z,2.20
2018-07-04T22:41:45.212Z,1.70
2018-07-04T22:44:25.866Z,2.10
2018-07-04T22:47:12.422Z,1.80
2018-07-04T22:49:58.860Z,2.13
2018-07-04T22:52:45.337Z,1.90
2018-07-04T22:55:31.887Z,2.03
2018-07-04T22:58:18.308Z,2.10
2018-07-04T23:01:04.705Z,2.53
2018-07-04T23:03:45.086Z,2.80
2018-07-04T23:06:31.487Z,2.27
2018-07-04T23:09:17.825Z,2.20
2018-07-04T23:12:04.238Z,2.30
2018-07-04T23:14:50.641Z,2.10
2018-07-04T23:17:36.927Z,2.20
2018-07-04T23:20:23.386Z,2.30
2018-07-04T23:23:03.815Z,3.03
2018-07-04T23:25:50.130Z,2.87
2018-07-04T23:28:36.586Z,2.63
2018-07-04T23:31:23.015Z,2.50
2018-07-04T23:34:09.385Z,2.67
2018-07-04T23:36:55.913Z,2.60
2018-07-04T23:39:42.305Z,2.80
2018-07-04T23:42:28.827Z,2.73
2018-07-04T23:45:15.308Z,2.80
2018-07-04T23:48:01.729Z,2.97
2018-07-04T23:50:48.185Z,3.30
2018-07-04T23:53:28.717Z,4.17
2018-07-04T23:56:15.385Z,3.20
2018-07-04T23:59:01.713Z,3.27
